White Lake, New York
Current Conditions -  °F | °C
As of 1:15 PM on Tuesday 21 Oct 2014 (Local Time) from KMSV Reporting Station
Overcast Overcast  
Wind Chill: 45°   Ceiling: 2100
Heat Index: 48°   Visibility: 10mi
Dew Point: 48°   Wind: 8mph
Humidity: 100%   Direction: 70°ENE
Pressure: 29.89"   Gusts: NA
Location:  41.68°N, 74.83°W
Report Text: KMSV 211715Z AUTO 07007KT 10SM SCT004 BKN021 OVC028 09/09 A2989 RMK AO1
Loading
Personal Weather Stations






























Interactive Weather Map
Tropical Storm Tracking
New forecast layout! Learn more

10-Day Weather Forecast

Advertisements
Track Severe Weather on mobile